createdAt,value
2022-10-18T00:01:15.659Z,104.3
2022-10-18T00:05:23.514Z,101.9
2022-10-18T00:07:27.568Z,104
2022-10-18T00:09:34.229Z,142.3
2022-10-18T00:11:38.155Z,111.1
2022-10-18T00:13:42.090Z,102.6
2022-10-18T00:14:45.469Z,115
2022-10-18T00:18:53.350Z,94.6
2022-10-18T00:20:57.289Z,111.7
2022-10-18T00:23:04.050Z,133
2022-10-18T00:25:07.986Z,111
2022-10-18T00:27:11.927Z,94.4
2022-10-18T00:29:15.845Z,82.1
2022-10-18T00:31:19.785Z,100.7
2022-10-18T00:33:23.718Z,94.3
2022-10-18T00:35:27.840Z,114
2022-10-18T00:37:34.491Z,118.4
2022-10-18T00:39:38.557Z,101.2
2022-10-18T00:41:42.367Z,124.5
2022-10-18T00:43:46.278Z,122.1
2022-10-18T00:45:50.195Z,119
2022-10-18T00:47:54.125Z,135.8
2022-10-18T00:49:58.069Z,101.3
2022-10-18T00:54:08.774Z,112
2022-10-18T00:56:12.695Z,108.1
2022-10-18T00:58:16.637Z,119.5
2022-10-18T01:00:20.562Z,121.5
2022-10-18T01:02:24.511Z,120.1
2022-10-18T01:04:28.444Z,125.1
2022-10-18T01:06:35.215Z,116.2
2022-10-18T01:10:43.102Z,140.8
2022-10-18T01:11:46.496Z,166.1
2022-10-18T01:13:50.411Z,115.7
2022-10-18T01:15:54.341Z,139.9
2022-10-18T01:17:58.287Z,129.8
2022-10-18T01:20:05.037Z,110.5
2022-10-18T01:22:08.968Z,125.5
2022-10-18T01:24:12.902Z,109.4
2022-10-18T01:26:18.330Z,108.9
2022-10-18T01:28:22.206Z,107.2
2022-10-18T01:30:26.162Z,95.9
2022-10-18T01:32:30.106Z,82.3
2022-10-18T01:34:36.851Z,88.2
2022-10-18T01:36:40.755Z,117.6
2022-10-18T01:38:44.684Z,95.1
2022-10-18T01:40:48.611Z,112.2
2022-10-18T01:42:52.638Z,72.3
2022-10-18T01:44:56.486Z,89.9
2022-10-18T01:47:00.399Z,102
2022-10-18T01:51:11.764Z,90.8
2022-10-18T01:53:15.688Z,101
2022-10-18T01:55:19.636Z,81.7
2022-10-18T01:57:23.545Z,87.5
2022-10-18T01:59:27.487Z,77.6
2022-10-18T02:01:31.427Z,102.9
2022-10-18T02:05:42.106Z,85.3
2022-10-18T02:12:08.056Z,120
2022-10-18T02:14:11.975Z,112.9
2022-10-18T02:18:22.648Z,91.1
2022-10-18T02:20:26.614Z,103.3
2022-10-18T02:22:30.738Z,104.2
2022-10-18T02:28:42.324Z,94.4
2022-10-18T02:32:53.006Z,85.3
2022-10-18T02:37:00.865Z,99.2
2022-10-18T02:39:04.791Z,125.1
2022-10-18T02:41:08.719Z,91.7
2022-10-18T02:43:12.676Z,105.3
2022-10-18T02:45:19.416Z,105.8
2022-10-18T02:47:23.383Z,114
2022-10-18T02:49:27.309Z,119.6
2022-10-18T02:51:31.265Z,75.3
2022-10-18T02:53:35.199Z,128.6
2022-10-18T02:55:39.143Z,104
2022-10-18T02:57:43.074Z,111.3
2022-10-18T02:59:49.817Z,122.6
2022-10-18T03:01:53.812Z,118.8
2022-10-18T03:03:57.677Z,117.3
2022-10-18T03:05:01.070Z,112
2022-10-18T03:07:04.996Z,109
2022-10-18T03:09:08.953Z,98.9
2022-10-18T03:11:12.874Z,121.2
2022-10-18T03:13:19.676Z,118.9
2022-10-18T03:15:23.511Z,109.3
2022-10-18T03:17:27.439Z,113.1
2022-10-18T03:19:31.372Z,85.9
2022-10-18T03:21:35.286Z,103.5
2022-10-18T03:23:39.223Z,116.6
2022-10-18T03:25:45.695Z,97.5
2022-10-18T03:27:49.879Z,112
2022-10-18T03:29:53.807Z,98.1
2022-10-18T03:31:57.758Z,107.6
2022-10-18T03:34:01.683Z,107.2
2022-10-18T03:36:05.599Z,98.2
2022-10-18T03:38:09.531Z,96.2
2022-10-18T03:40:13.436Z,98.2
2022-10-18T03:48:31.990Z,109.5
2022-10-18T03:58:54.458Z,112.7
2022-10-18T04:00:58.388Z,91.3
2022-10-18T04:02:01.807Z,107
2022-10-18T04:04:05.694Z,128.7
2022-10-18T04:06:09.632Z,94.8
2022-10-18T04:08:13.571Z,83.7
2022-10-18T04:10:20.290Z,104.6
2022-10-18T04:12:24.212Z,81
2022-10-18T04:14:28.150Z,90.6
2022-10-18T04:16:32.156Z,110.2
2022-10-18T04:18:35.989Z,91.1
2022-10-18T04:20:39.930Z,71.2
2022-10-18T04:22:43.846Z,80.5
2022-10-18T04:24:51.615Z,84.8
2022-10-18T04:26:55.543Z,100.9
2022-10-18T04:28:59.576Z,87.2
2022-10-18T04:31:03.384Z,82.6
2022-10-18T04:33:07.314Z,101.5
2022-10-18T04:35:11.232Z,80.8
2022-10-18T04:37:15.159Z,86.4
2022-10-18T04:39:21.902Z,116.8
2022-10-18T04:41:25.824Z,86.4
2022-10-18T04:43:29.733Z,91.7
2022-10-18T04:45:33.658Z,96.9
2022-10-18T04:47:37.583Z,113.6
2022-10-18T04:49:41.500Z,107.2
2022-10-18T04:51:45.456Z,93.2
2022-10-18T04:53:52.288Z,123.1
2022-10-18T04:55:56.217Z,102.3
2022-10-18T04:58:00.137Z,113.7
2022-10-18T04:59:03.919Z,140.6
2022-10-18T05:05:15.700Z,120.4
2022-10-18T05:07:22.438Z,121.4
2022-10-18T05:09:26.351Z,110.7
2022-10-18T05:11:30.283Z,138.1
2022-10-18T05:13:34.231Z,81.7
2022-10-18T05:15:38.110Z,109.5
2022-10-18T05:17:42.030Z,74.8
2022-10-18T05:19:45.938Z,75.7
2022-10-18T05:21:52.703Z,124.2
2022-10-18T05:28:10.986Z,125.7
2022-10-18T05:32:12.317Z,104.1
2022-10-18T05:36:22.968Z,63.7
2022-10-18T05:38:26.901Z,81.2
2022-10-18T05:40:30.804Z,99.9
2022-10-18T05:42:34.854Z,107.2
2022-10-18T05:44:38.645Z,57.5
2022-10-18T05:46:42.567Z,83.6
2022-10-18T05:48:46.482Z,65.2
2022-10-18T05:50:53.236Z,88.6
2022-10-18T05:53:06.740Z,81.5
2022-10-18T05:55:01.063Z,86.5
2022-10-18T05:57:24.871Z,70.7
2022-10-18T05:59:28.753Z,56.8
2022-10-18T06:01:32.751Z,79.1
2022-10-18T06:03:39.425Z,64.6
2022-10-18T06:05:43.313Z,52.3
2022-10-18T06:07:47.249Z,67.3
2022-10-18T06:09:51.150Z,65.7
2022-10-18T06:11:55.095Z,48.1
2022-10-18T06:13:58.998Z,41
2022-10-18T06:16:02.916Z,51.8
2022-10-18T06:18:09.647Z,54.2
2022-10-18T06:20:13.569Z,60.8
2022-10-18T06:22:17.453Z,44.7
2022-10-18T06:24:21.397Z,62.5
2022-10-18T06:26:25.307Z,69.5
2022-10-18T06:30:33.138Z,71.4
2022-10-18T06:32:39.857Z,59.8
2022-10-18T06:34:43.765Z,55.1
2022-10-18T06:36:47.692Z,43.9
2022-10-18T06:38:51.631Z,54
2022-10-18T06:40:55.625Z,58.6
2022-10-18T06:43:00.767Z,68.3
2022-10-18T06:45:03.415Z,47.6
2022-10-18T06:47:10.137Z,47.9
2022-10-18T06:49:15.318Z,44.2
2022-10-18T06:51:17.960Z,50.2
2022-10-18T06:52:21.327Z,66.5
2022-10-18T06:56:29.142Z,49.1
2022-10-18T06:58:33.044Z,61.5
2022-10-18T07:00:39.796Z,49.4
2022-10-18T07:02:43.708Z,51.6
2022-10-18T07:06:51.555Z,30.4
2022-10-18T07:08:55.469Z,38.5
2022-10-18T07:10:59.362Z,48.8
2022-10-18T07:13:27.340Z,54.2
2022-10-18T07:15:10.030Z,42.5
2022-10-18T07:17:13.908Z,40.3
2022-10-18T07:19:17.836Z,33
2022-10-18T07:21:21.742Z,60.4
2022-10-18T07:23:27.150Z,40.4
2022-10-18T07:25:31.014Z,35.7
2022-10-18T07:27:35.080Z,35.4
2022-10-18T07:29:41.652Z,39.5
2022-10-18T07:31:45.561Z,44.9
2022-10-18T07:33:49.480Z,47.1
2022-10-18T07:35:53.379Z,51.2
2022-10-18T07:37:57.295Z,32.8
2022-10-18T07:40:01.204Z,36.7
2022-10-18T07:48:19.704Z,34.7
2022-10-18T07:53:30.845Z,33.1
2022-10-18T07:57:41.481Z,79.4
2022-10-18T07:59:45.398Z,71.9
2022-10-18T08:01:49.404Z,97.1
2022-10-18T08:03:53.257Z,43.3
2022-10-18T08:05:57.178Z,52.2
2022-10-18T08:08:04.242Z,25.5
2022-10-18T08:10:05.057Z,33.9
2022-10-18T08:12:11.807Z,27.8
2022-10-18T08:14:15.702Z,32.7
2022-10-18T08:16:19.740Z,32.9
2022-10-18T08:18:23.590Z,13.1
2022-10-18T08:20:30.829Z,26.7
2022-10-18T08:22:31.454Z,25.6
2022-10-18T08:24:35.443Z,28.4
2022-10-18T08:26:42.168Z,20.1
2022-10-18T08:28:53.883Z,14.2
2022-10-18T08:30:50.018Z,12.7
2022-10-18T08:37:01.808Z,9.9
2022-10-18T08:41:12.486Z,12.7
2022-10-18T08:45:30.529Z,27.7
2022-10-18T08:46:23.694Z,8.6
2022-10-18T08:48:27.624Z,10.7
2022-10-18T08:50:31.535Z,3.7
2022-10-18T08:52:35.517Z,5.4
2022-10-18T08:54:42.195Z,6.9
2022-10-18T08:56:46.103Z,8.5
2022-10-18T08:58:50.048Z,3.9
2022-10-18T09:00:53.975Z,3.6
2022-10-18T09:02:57.927Z,9.5
2022-10-18T09:05:01.767Z,13.4
2022-10-18T09:09:12.395Z,8.6
2022-10-18T09:11:16.333Z,2.6
2022-10-18T09:13:20.243Z,3.6
2022-10-18T09:15:24.134Z,6.2
2022-10-18T09:17:28.037Z,7.5
2022-10-18T09:19:31.955Z,3.3
2022-10-18T09:21:35.856Z,6.6
2022-10-18T09:27:50.402Z,13
2022-10-18T09:29:54.311Z,6.4
2022-10-18T09:31:58.206Z,2.9
2022-10-18T09:34:02.112Z,7.1
2022-10-18T09:38:12.784Z,3.3
2022-10-18T09:42:20.571Z,3.5
2022-10-18T09:44:48.194Z,5.4
2022-10-18T09:46:52.087Z,3.7
2022-10-18T09:48:56.001Z,3.3
2022-10-18T09:55:10.486Z,1.6
2022-10-18T09:59:18.267Z,11.7
2022-10-18T10:01:22.193Z,1.7
2022-10-18T10:03:26.050Z,1.1
2022-10-18T10:05:32.808Z,1.4
2022-10-18T10:07:37.011Z,2.8
2022-10-18T10:09:41.302Z,5.2
2022-10-18T10:11:45.161Z,2.7
2022-10-18T10:13:49.055Z,10.3
2022-10-18T10:15:52.912Z,2.7
2022-10-18T10:28:19.074Z,1.9
2022-10-18T10:30:22.970Z,4.4
2022-10-18T10:36:37.494Z,3.1
2022-10-18T10:38:41.359Z,0.9
2022-10-18T10:39:51.234Z,2
2022-10-18T10:41:48.612Z,1.5
2022-10-18T10:43:52.466Z,2.2
2022-10-18T10:45:56.355Z,3.8
2022-10-18T10:48:03.098Z,0.8
2022-10-18T10:50:06.968Z,8.3
2022-10-18T10:52:26.257Z,4.4
2022-10-18T10:54:14.752Z,4.5
2022-10-18T10:56:18.618Z,6.8
2022-10-18T10:58:22.496Z,2.1
2022-10-18T11:00:26.397Z,8.9
2022-10-18T11:02:33.397Z,0.9
2022-10-18T11:04:36.709Z,1.2
2022-10-18T11:06:40.597Z,6.1
2022-10-18T11:10:48.360Z,6.9
2022-10-18T11:12:52.281Z,2.8
2022-10-18T11:21:10.616Z,9.4
2022-10-18T11:23:14.509Z,1.8
2022-10-18T11:25:18.391Z,2.2
2022-10-18T11:27:22.286Z,1
2022-10-18T11:31:32.886Z,5.7
2022-10-18T11:36:54.557Z,3.4
2022-10-18T11:38:47.921Z,1.5
2022-10-18T11:45:02.495Z,2
2022-10-18T11:47:06.327Z,6
2022-10-18T11:49:10.236Z,2.1
2022-10-18T11:51:14.145Z,2.5
2022-10-18T11:53:18.050Z,4.6
2022-10-18T11:55:21.954Z,6
2022-10-18T11:57:25.878Z,2.1
2022-10-18T11:59:32.618Z,5.9
2022-10-18T12:01:36.524Z,3.1
2022-10-18T12:03:40.439Z,4.5
2022-10-18T12:05:44.364Z,3.3
2022-10-18T12:09:52.226Z,9.8
2022-10-18T12:11:56.145Z,5.4
2022-10-18T12:14:02.890Z,2.7
2022-10-18T12:16:06.847Z,5
2022-10-18T12:18:10.771Z,5.9
2022-10-18T12:22:18.608Z,5.4
2022-10-18T12:24:22.686Z,1.1
2022-10-18T12:26:26.490Z,3.5
2022-10-18T12:28:33.291Z,10.8
2022-10-18T12:30:37.163Z,3.7
2022-10-18T12:32:51.564Z,1.8
2022-10-18T12:35:48.413Z,0.3
2022-10-18T12:37:52.344Z,1.2
2022-10-18T12:40:11.124Z,0.9
2022-10-18T12:42:03.023Z,0.5
2022-10-18T12:44:06.961Z,6.4
2022-10-18T12:46:13.583Z,2.3
2022-10-18T12:48:14.838Z,4.7
2022-10-18T12:50:18.772Z,1
2022-10-18T12:52:22.688Z,2.2
2022-10-18T12:54:26.634Z,3.7
2022-10-18T12:56:33.369Z,2.4
2022-10-18T12:58:37.309Z,2
2022-10-18T13:00:41.262Z,2.9
2022-10-18T13:02:45.181Z,0.6
2022-10-18T13:04:49.293Z,4.8
2022-10-18T13:06:53.075Z,1.3
2022-10-18T13:08:56.977Z,2.8
2022-10-18T13:11:03.755Z,1.3
2022-10-18T13:13:24.482Z,3.5
2022-10-18T13:15:24.817Z,4
2022-10-18T13:17:15.538Z,1.7
2022-10-18T13:19:19.484Z,2.9
2022-10-18T13:23:30.040Z,5.9
2022-10-18T13:25:35.580Z,1.7
2022-10-18T13:27:39.502Z,1.3
2022-10-18T13:29:43.458Z,4.1
2022-10-18T13:32:13.153Z,8.2
2022-10-18T13:34:17.066Z,1.8
2022-10-18T13:36:23.105Z,5.8
2022-10-18T13:38:27.720Z,4.5
2022-10-18T13:40:31.703Z,4.8
2022-10-18T13:42:35.906Z,6.1
2022-10-18T13:44:39.532Z,7.5
2022-10-18T13:46:43.458Z,2.7
2022-10-18T13:48:47.383Z,6
2022-10-18T13:50:51.319Z,8.2
2022-10-18T13:52:58.103Z,2.2
2022-10-18T13:55:02.046Z,2.2
2022-10-18T13:57:05.951Z,3.1
2022-10-18T13:59:14.980Z,2.5
2022-10-18T14:01:14.377Z,2.5
2022-10-18T14:03:32.031Z,7.5
2022-10-18T14:05:24.969Z,4.4
2022-10-18T14:07:28.458Z,8.6
2022-10-18T14:09:43.636Z,17.4
2022-10-18T14:11:36.349Z,4.7
2022-10-18T14:13:40.285Z,4.1
2022-10-18T14:15:44.754Z,4.3
2022-10-18T14:17:48.677Z,5.5
2022-10-18T14:19:52.614Z,8.1
2022-10-18T14:21:59.374Z,1.9
2022-10-18T14:24:03.327Z,4.4
2022-10-18T14:26:07.237Z,5.4
2022-10-18T14:27:10.612Z,5.7
2022-10-18T14:29:14.602Z,4.4
2022-10-18T14:31:18.509Z,3.8
2022-10-18T14:33:22.432Z,7.2
2022-10-18T14:35:32.869Z,3.6
2022-10-18T14:37:33.432Z,9.9
2022-10-18T14:39:37.045Z,6.6
2022-10-18T14:41:40.996Z,7.8
2022-10-18T14:43:44.911Z,3.4
2022-10-18T14:45:48.868Z,4.8
2022-10-18T14:47:52.834Z,2.1
2022-10-18T14:49:59.563Z,14.6
2022-10-18T14:52:03.474Z,3.3
2022-10-18T14:54:07.458Z,10.2
2022-10-18T14:56:11.344Z,4.6
2022-10-18T14:58:15.304Z,3.7
2022-10-18T15:00:19.249Z,2.8
2022-10-18T15:02:23.200Z,2.7
2022-10-18T15:04:29.947Z,7.2
2022-10-18T15:06:33.863Z,9.7
2022-10-18T15:08:37.825Z,2.4
2022-10-18T15:10:41.741Z,3
2022-10-18T15:14:49.614Z,10.7
2022-10-18T15:16:53.781Z,8.4
2022-10-18T15:19:00.324Z,6
2022-10-18T15:21:04.255Z,1.9
2022-10-18T15:23:08.206Z,7
2022-10-18T15:24:11.585Z,3.1
2022-10-18T15:26:15.533Z,3.7
2022-10-18T15:28:19.479Z,3.2
2022-10-18T15:30:23.401Z,8.7
2022-10-18T15:36:38.084Z,3.6
2022-10-18T15:42:49.856Z,4.3
2022-10-18T15:47:00.556Z,6.1
2022-10-18T15:51:08.442Z,15.3
2022-10-18T15:53:12.390Z,2.8
2022-10-18T15:57:20.274Z,3.4
2022-10-18T15:59:24.197Z,2.9
2022-10-18T16:01:31.040Z,7.8
2022-10-18T16:03:34.892Z,9.2
2022-10-18T16:05:38.856Z,3.4
2022-10-18T16:07:42.768Z,9.2
2022-10-18T16:11:55.601Z,15.8
2022-10-18T16:13:57.829Z,15.5
2022-10-18T16:16:01.336Z,16.2
2022-10-18T16:18:05.276Z,12.3
2022-10-18T16:20:09.196Z,9
2022-10-18T16:21:12.584Z,11.7
2022-10-18T16:23:16.511Z,10.8
2022-10-18T16:25:20.444Z,6.6
2022-10-18T16:27:24.382Z,14.2
2022-10-18T16:29:31.148Z,6.5
2022-10-18T16:31:35.075Z,6.8
2022-10-18T16:33:39.000Z,8.1
2022-10-18T16:35:42.935Z,16.5
2022-10-18T16:37:46.947Z,15.4
2022-10-18T16:39:50.808Z,57.1
2022-10-18T16:41:54.731Z,13.9
2022-10-18T16:44:01.489Z,29.5
2022-10-18T16:46:05.409Z,9.2
2022-10-18T16:48:09.347Z,15.4
2022-10-18T16:50:13.283Z,9
2022-10-18T16:52:17.190Z,17.6
2022-10-18T16:54:21.120Z,8.6
2022-10-18T16:58:31.788Z,15.3
2022-10-18T17:02:39.636Z,7.2
2022-10-18T17:04:43.560Z,7.4
2022-10-18T17:06:47.503Z,19.6
2022-10-18T17:08:51.404Z,8.1
2022-10-18T17:10:55.364Z,8.3
2022-10-18T17:13:02.085Z,5.9
2022-10-18T17:15:06.029Z,3.4
2022-10-18T17:17:09.922Z,15.5
2022-10-18T17:19:31.956Z,10
2022-10-18T17:21:35.904Z,14.6
2022-10-18T17:23:39.808Z,9.5
2022-10-18T17:27:50.448Z,18.4
2022-10-18T17:31:58.306Z,6.1
2022-10-18T17:36:06.143Z,9.4
2022-10-18T17:38:10.076Z,8
2022-10-18T17:42:20.696Z,9.3
2022-10-18T17:44:24.607Z,21
2022-10-18T17:46:28.526Z,14
2022-10-18T17:48:32.452Z,13.7
2022-10-18T17:50:36.501Z,9.4
2022-10-18T17:52:40.527Z,28
2022-10-18T17:54:47.148Z,14.7
2022-10-18T17:56:53.898Z,10.9
2022-10-18T17:58:54.970Z,7.3
2022-10-18T18:00:58.894Z,11.1
2022-10-18T18:03:02.863Z,8.5
2022-10-18T18:05:06.680Z,21.1
2022-10-18T18:07:10.622Z,11.1
2022-10-18T18:11:21.251Z,13.6
2022-10-18T18:13:25.152Z,16.7
2022-10-18T18:14:28.519Z,10.6
2022-10-18T18:16:32.424Z,12
2022-10-18T18:18:36.339Z,12
2022-10-18T18:20:40.249Z,19.4
2022-10-18T18:22:46.961Z,13.8
2022-10-18T18:24:50.874Z,16.2
2022-10-18T18:26:54.786Z,7.8
2022-10-18T18:33:06.586Z,17.1
2022-10-18T18:35:10.499Z,4.5
2022-10-18T18:37:17.203Z,13.9
2022-10-18T18:39:21.111Z,12.4
2022-10-18T18:41:25.020Z,7.5
2022-10-18T18:43:28.918Z,14.1
2022-10-18T18:47:36.703Z,5.3
2022-10-18T18:49:40.613Z,11.4
2022-10-18T18:51:47.427Z,10.7
2022-10-18T18:53:51.294Z,11.9
2022-10-18T18:55:55.220Z,7.3
2022-10-18T19:00:03.423Z,16.7
2022-10-18T19:04:10.786Z,14.1
2022-10-18T19:06:17.475Z,15.7
2022-10-18T19:08:21.370Z,14.6
2022-10-18T19:10:25.249Z,16.2
2022-10-18T19:11:28.607Z,12
2022-10-18T19:13:32.480Z,15.7
2022-10-18T19:15:36.377Z,22.3
2022-10-18T19:17:41.771Z,15.1
2022-10-18T19:19:48.413Z,15.4
2022-10-18T19:21:52.301Z,8.8
2022-10-18T19:23:56.205Z,16.6
2022-10-18T19:26:00.102Z,13.3
2022-10-18T19:28:03.973Z,7.3
2022-10-18T19:30:07.888Z,9.6
2022-10-18T19:32:11.767Z,18.8
2022-10-18T19:34:18.597Z,11.2
2022-10-18T19:36:22.534Z,9.1
2022-10-18T19:38:26.532Z,5.7
2022-10-18T19:42:34.699Z,10.5
2022-10-18T19:44:38.417Z,14.6
2022-10-18T19:46:42.062Z,15
2022-10-18T19:48:48.780Z,19.8
2022-10-18T19:50:52.662Z,5.8
2022-10-18T19:52:56.561Z,27.1
2022-10-18T19:55:00.415Z,14.3
2022-10-18T19:57:04.304Z,9.2
2022-10-18T19:59:08.194Z,8.8
2022-10-18T20:01:12.658Z,11.1
2022-10-18T20:03:19.322Z,8.3
2022-10-18T20:05:23.292Z,16.4
2022-10-18T20:07:27.187Z,7.5
2022-10-18T20:08:30.536Z,9.5
2022-10-18T20:10:34.374Z,11.5
2022-10-18T20:16:48.946Z,27.4
2022-10-18T20:20:56.895Z,11.2
2022-10-18T20:23:00.746Z,13.2
2022-10-18T20:25:04.640Z,29.2
2022-10-18T20:31:19.399Z,28.1
2022-10-18T20:35:27.221Z,13.3
2022-10-18T20:39:34.951Z,14.1
2022-10-18T20:41:38.916Z,24.5
2022-10-18T20:47:53.563Z,11.1
2022-10-18T20:49:57.541Z,31
2022-10-18T20:52:01.410Z,14
2022-10-18T20:56:09.149Z,17.2
2022-10-18T20:58:12.995Z,29.2
2022-10-18T21:00:19.707Z,22
2022-10-18T21:02:23.543Z,16.9
2022-10-18T21:04:27.521Z,18.6
2022-10-18T21:06:51.491Z,25.4
2022-10-18T21:08:55.377Z,19.8
2022-10-18T21:10:59.340Z,16.2
2022-10-18T21:13:06.101Z,19.6
2022-10-18T21:15:09.946Z,36.9
2022-10-18T21:17:13.809Z,18.9
2022-10-18T21:19:17.652Z,16.5
2022-10-18T21:21:21.524Z,28
2022-10-18T21:23:25.385Z,16.1
2022-10-18T21:25:29.269Z,14.9
2022-10-18T21:27:36.173Z,20.1
2022-10-18T21:29:40.025Z,18.5
2022-10-18T21:31:43.857Z,13.4
2022-10-18T21:33:47.708Z,17.5
2022-10-18T21:35:51.587Z,21
2022-10-18T21:37:55.524Z,22.7
2022-10-18T21:39:59.383Z,14.8
2022-10-18T21:42:06.278Z,31.4
2022-10-18T21:44:10.957Z,31.9
2022-10-18T21:46:14.160Z,15.8
2022-10-18T21:48:18.215Z,20.4
2022-10-18T21:50:21.985Z,8.5
2022-10-18T21:52:25.841Z,18.6
2022-10-18T21:54:29.702Z,19.7
2022-10-18T21:56:36.344Z,9
2022-10-18T21:58:40.202Z,12.9
2022-10-18T22:00:44.200Z,43.9
2022-10-18T22:01:47.503Z,32.2
2022-10-18T22:03:51.371Z,7.7
2022-10-18T22:05:55.347Z,8.9
2022-10-18T22:07:59.270Z,31.5
2022-10-18T22:10:06.035Z,18.9
2022-10-18T22:12:10.862Z,17.6
2022-10-18T22:14:13.717Z,16.8
2022-10-18T22:16:17.568Z,17.3
2022-10-18T22:18:21.529Z,13.1
2022-10-18T22:20:25.389Z,14
2022-10-18T22:28:44.165Z,15.9
2022-10-18T22:32:51.932Z,10.7
2022-10-18T22:34:55.876Z,26.9
2022-10-18T22:36:59.826Z,9.8
2022-10-18T22:39:06.677Z,10.4
2022-10-18T22:41:10.549Z,11.2
2022-10-18T22:43:14.493Z,13.2
2022-10-18T22:45:18.430Z,22.2
2022-10-18T22:47:22.285Z,22.9
2022-10-18T22:49:26.247Z,13.2
2022-10-18T22:51:30.145Z,7.5
2022-10-18T22:53:36.742Z,11.6
2022-10-18T22:55:40.662Z,10.3
2022-10-18T22:57:44.631Z,23.8
2022-10-18T22:58:48.068Z,15.1
2022-10-18T23:00:51.903Z,13.6
2022-10-18T23:02:55.815Z,22.3
2022-10-18T23:04:59.746Z,16.4
2022-10-18T23:07:06.621Z,28.3
2022-10-18T23:09:10.711Z,5.8
2022-10-18T23:11:14.425Z,6
2022-10-18T23:13:18.340Z,10
2022-10-18T23:15:22.155Z,19.5
2022-10-18T23:17:26.000Z,4.6
2022-10-18T23:19:29.834Z,18
2022-10-18T23:21:36.681Z,6
2022-10-18T23:23:40.516Z,11.7
2022-10-18T23:25:45.370Z,18.6
2022-10-18T23:27:48.209Z,16.6
2022-10-18T23:29:52.144Z,8.8
2022-10-18T23:31:56.050Z,8.5
2022-10-18T23:33:59.910Z,9.3
2022-10-18T23:36:06.664Z,12.6
2022-10-18T23:38:10.480Z,11.3
2022-10-18T23:40:14.432Z,8.9
2022-10-18T23:42:18.399Z,11.8
2022-10-18T23:44:22.328Z,13
2022-10-18T23:46:26.239Z,14
2022-10-18T23:48:30.182Z,16
2022-10-18T23:50:36.953Z,9
2022-10-18T23:52:40.865Z,7.7
2022-10-18T23:55:48.111Z,8.8
2022-10-18T23:57:52.052Z,5.8
2022-10-18T23:59:56.001Z,11.4
